Time;durP1;ratioP1;P1;durP2;ratioP2;P2;SDS_P1;SDS_P2;PMS_P1;PMS_P2;Temp;Humidity;BMP_temperature;BMP_pressure;BME280_temperature;BME280_humidity;BME280_pressure;Samples;Min_cycle;Max_cycle;Signal;HPM_P1;HPM_P2
2022/01/26 00:00:41;;;;;;;168.63;128.68;;;4.20;98.30;;;;;;4977088;28;20142;-86
2022/01/26 00:06:06;;;;;;;168.93;132.20;;;4.20;98.30;;;;;;4979515;28;20517;-87
2022/01/26 00:08:38;;;;;;;173.68;132.60;;;4.20;98.30;;;;;;4980433;28;20187;-86
2022/01/26 00:11:05;;;;;;;176.77;132.95;;;4.20;98.30;;;;;;4980742;28;20541;-87
2022/01/26 00:13:32;;;;;;;175.52;132.10;;;4.10;98.40;;;;;;4964906;28;20097;-86
2022/01/26 00:16:02;;;;;;;167.88;129.07;;;4.10;98.40;;;;;;4964443;28;20047;-87
2022/01/26 00:18:34;;;;;;;172.07;129.85;;;4.10;98.40;;;;;;4980583;28;20054;-87
2022/01/26 00:21:09;;;;;;;173.95;129.60;;;4.10;98.40;;;;;;4980698;28;20134;-86
2022/01/26 00:24:03;;;;;;;176.48;131.13;;;4.10;98.40;;;;;;4996924;28;21468;-87
2022/01/26 00:26:36;;;;;;;170.52;130.43;;;4.10;98.50;;;;;;4980893;28;20161;-86
2022/01/26 00:29:11;;;;;;;169.60;128.98;;;4.00;98.50;;;;;;4980524;28;20047;-87
2022/01/26 00:40:06;;;;;;;170.02;128.43;;;4.00;98.50;;;;;;4980352;28;20054;-86
2022/01/26 00:42:37;;;;;;;177.60;133.60;;;4.00;98.70;;;;;;4964147;28;21049;-86
2022/01/26 00:45:04;;;;;;;178.73;131.82;;;4.00;98.50;;;;;;4979928;28;20080;-86
2022/01/26 00:47:31;;;;;;;174.70;131.75;;;4.00;98.50;;;;;;4980149;28;20632;-86
2022/01/26 00:50:04;;;;;;;170.57;130.23;;;4.00;98.50;;;;;;4980070;28;20109;-87
2022/01/26 00:52:39;;;;;;;172.80;130.73;;;4.00;98.50;;;;;;4980110;28;20055;-86
2022/01/26 00:55:08;;;;;;;171.45;129.60;;;4.00;98.50;;;;;;4980233;28;20085;-87
2022/01/26 00:57:35;;;;;;;176.27;134.27;;;3.90;98.50;;;;;;4996107;28;20051;-86
2022/01/26 01:00:07;;;;;;;169.77;130.60;;;3.90;98.50;;;;;;4980161;28;20126;-86
2022/01/26 01:02:34;;;;;;;171.73;130.18;;;3.90;98.50;;;;;;4980019;28;20495;-86
2022/01/26 01:05:06;;;;;;;176.35;132.27;;;3.90;98.50;;;;;;4979767;28;20078;-86
2022/01/26 01:07:37;;;;;;;179.00;133.98;;;3.90;98.50;;;;;;4979953;28;20552;-87
2022/01/26 01:10:05;;;;;;;168.07;127.47;;;3.90;98.60;;;;;;4963802;28;20055;-87
2022/01/26 01:12:38;;;;;;;174.13;129.98;;;3.90;98.50;;;;;;4980072;28;20417;-85
2022/01/26 01:15:06;;;;;;;172.60;132.60;;;3.80;98.50;;;;;;4980035;28;20050;-87
2022/01/26 01:17:39;;;;;;;170.45;129.80;;;3.80;98.50;;;;;;4995126;28;20078;-87
2022/01/26 01:20:16;;;;;;;170.02;127.18;;;3.80;98.50;;;;;;4979725;28;20062;-87
2022/01/26 01:22:55;;;;;;;170.23;127.32;;;3.80;98.50;;;;;;4980044;28;20043;-86
2022/01/26 01:28:22;;;;;;;173.68;130.63;;;3.80;98.50;;;;;;4979603;28;20536;-87
2022/01/26 01:30:54;;;;;;;175.88;130.23;;;3.80;98.50;;;;;;4979591;28;20059;-87
2022/01/26 01:33:27;;;;;;;165.45;125.88;;;3.70;98.50;;;;;;4980060;28;20055;-87
2022/01/26 01:35:54;;;;;;;168.65;127.32;;;3.70;98.60;;;;;;4980044;28;20055;-86
2022/01/26 01:38:26;;;;;;;164.93;126.10;;;3.70;98.60;;;;;;4979395;28;20186;-87
2022/01/26 01:40:53;;;;;;;162.90;126.07;;;3.70;98.60;;;;;;4979441;28;20512;-87
2022/01/26 01:43:22;;;;;;;164.73;126.88;;;3.70;98.50;;;;;;4979180;28;20133;-86
2022/01/26 01:45:52;;;;;;;168.60;127.22;;;3.70;98.50;;;;;;4979440;28;20898;-86
2022/01/26 01:48:22;;;;;;;165.07;126.90;;;3.60;98.50;;;;;;4979334;28;20045;-86
2022/01/26 01:50:52;;;;;;;166.40;127.35;;;3.70;98.50;;;;;;4979212;28;20058;-86
2022/01/26 01:53:30;;;;;;;174.27;126.03;;;3.60;98.50;;;;;;4979332;28;20058;-86
2022/01/26 01:55:59;;;;;;;174.38;130.55;;;3.60;98.50;;;;;;4979408;28;20085;-86
2022/01/26 01:58:26;;;;;;;173.88;130.70;;;3.60;98.50;;;;;;4979103;28;20055;-86
2022/01/26 02:00:53;;;;;;;171.20;126.65;;;3.60;98.50;;;;;;4979426;28;20153;-85
2022/01/26 02:03:21;;;;;;;172.82;129.85;;;3.60;98.60;;;;;;4979191;28;20117;-86
2022/01/26 02:05:49;;;;;;;179.45;130.05;;;3.60;98.60;;;;;;4979467;28;20085;-86
2022/01/26 02:08:16;;;;;;;174.18;128.63;;;3.70;98.60;;;;;;4979145;28;20053;-85
2022/01/26 02:10:45;;;;;;;;;;;3.60;98.50;;;;;;4963290;28;20046;-85
2022/01/26 02:13:19;;;;;;;180.15;127.38;;;3.60;98.50;;;;;;4980544;28;19953;-86
2022/01/26 02:15:52;;;;;;;173.45;127.60;;;3.60;98.50;;;;;;4964437;28;20138;-86
2022/01/26 02:53:19;;;;;;;174.48;125.97;;;3.50;98.60;;;;;;4978388;28;20078;-86
2022/01/26 02:55:50;;;;;;;185.52;129.50;;;3.40;98.60;;;;;;4962314;28;20061;-86
2022/01/26 03:01:18;;;;;;;183.05;129.57;;;3.40;98.80;;;;;;4978307;28;20059;-86
2022/01/26 03:03:53;;;;;;;187.15;130.68;;;3.40;98.80;;;;;;4978328;28;20123;-85
2022/01/26 03:06:28;;;;;;;185.50;133.73;;;3.40;98.80;;;;;;4978328;28;20138;-87
2022/01/26 03:09:00;;;;;;;183.25;132.98;;;3.40;98.90;;;;;;4978242;28;20101;-86
2022/01/26 03:11:32;;;;;;;180.32;127.28;;;3.40;98.90;;;;;;4978121;28;20057;-86
2022/01/26 03:14:07;;;;;;;183.27;134.38;;;3.40;98.80;;;;;;4961871;28;20050;-87
2022/01/26 03:16:39;;;;;;;183.07;127.55;;;3.40;98.80;;;;;;4978310;28;20509;-87
2022/01/26 03:19:17;;;;;;;183.68;133.45;;;3.40;98.80;;;;;;4977988;28;20084;-86
2022/01/26 03:21:56;;;;;;;186.82;132.13;;;3.40;98.80;;;;;;4978216;28;20054;-86
2022/01/26 03:30:08;;;;;;;174.00;127.18;;;3.40;98.90;;;;;;4976530;28;20054;-86
2022/01/26 03:33:09;;;;;;;185.23;134.15;;;3.40;98.90;;;;;;4977770;28;20509;-86
2022/01/26 03:35:43;;;;;;;180.70;130.20;;;3.40;99.00;;;;;;4993956;28;20612;-86
2022/01/26 03:38:18;;;;;;;183.52;132.00;;;3.40;98.90;;;;;;4977928;28;20513;-86
2022/01/26 03:40:45;;;;;;;178.38;128.23;;;3.40;98.90;;;;;;4963412;28;20090;-86
2022/01/26 03:43:13;;;;;;;189.50;130.40;;;3.40;98.80;;;;;;4964966;28;20098;-86
2022/01/26 03:45:40;;;;;;;185.02;131.82;;;3.40;98.90;;;;;;4980900;28;20051;-86
2022/01/26 03:48:08;;;;;;;181.35;127.82;;;3.40;98.90;;;;;;4981168;28;20547;-86
2022/01/26 03:50:38;;;;;;;181.73;131.75;;;3.40;99.10;;;;;;4981312;28;20086;-86
2022/01/26 03:53:05;;;;;;;178.68;129.15;;;3.40;98.90;;;;;;4981878;28;20054;-86
2022/01/26 03:55:34;;;;;;;182.32;130.48;;;3.40;98.90;;;;;;4980873;28;20125;-87
2022/01/26 03:58:01;;;;;;;181.38;127.93;;;3.40;98.90;;;;;;4997226;28;20058;-87
2022/01/26 04:00:30;;;;;;;181.38;128.23;;;3.40;98.90;;;;;;4981124;28;20051;-86
2022/01/26 04:02:58;;;;;;;181.57;128.30;;;3.30;98.90;;;;;;4980971;28;20516;-86
2022/01/26 04:05:26;;;;;;;180.07;131.30;;;3.30;98.90;;;;;;4965224;28;20057;-86
2022/01/26 04:07:59;;;;;;;183.50;131.75;;;3.30;98.90;;;;;;4980860;28;20058;-86
2022/01/26 04:10:37;;;;;;;180.73;129.60;;;3.30;98.90;;;;;;4980771;28;20527;-87
2022/01/26 04:13:04;;;;;;;179.45;129.77;;;3.30;99.00;;;;;;4981122;28;20077;-86
2022/01/26 04:15:35;;;;;;;180.77;130.48;;;3.30;99.00;;;;;;4980550;28;20047;-86
2022/01/26 04:18:04;;;;;;;182.13;131.48;;;3.30;99.00;;;;;;4980199;28;20065;-85
2022/01/26 04:20:36;;;;;;;186.55;130.85;;;3.40;99.00;;;;;;4980476;28;20059;-85
2022/01/26 04:23:11;;;;;;;182.02;131.30;;;3.30;99.00;;;;;;4980567;28;20141;-86
2022/01/26 04:25:40;;;;;;;177.10;129.07;;;3.30;98.90;;;;;;4980547;28;20060;-86
2022/01/26 04:28:15;;;;;;;174.25;127.93;;;3.30;98.90;;;;;;4964114;28;20568;-85
2022/01/26 04:30:43;;;;;;;176.32;124.50;;;3.30;98.90;;;;;;4980758;28;20059;-87
2022/01/26 04:33:10;;;;;;;176.27;126.53;;;3.30;98.90;;;;;;4980631;28;20642;-86
2022/01/26 04:35:44;;;;;;;173.43;126.85;;;3.30;98.90;;;;;;4980628;28;20133;-85
2022/01/26 04:38:19;;;;;;;168.75;126.68;;;3.30;98.90;;;;;;4964152;28;20499;-86
2022/01/26 04:40:56;;;;;;;171.70;127.53;;;3.30;98.90;;;;;;4980119;28;20932;-87
2022/01/26 04:43:27;;;;;;;179.00;129.05;;;3.30;98.90;;;;;;4979985;28;20528;-87
2022/01/26 04:45:56;;;;;;;177.05;127.40;;;3.30;98.90;;;;;;4980320;28;20142;-86
2022/01/26 04:48:25;;;;;;;171.57;127.35;;;3.30;98.90;;;;;;4980014;28;20055;-86
2022/01/26 04:50:53;;;;;;;172.52;124.30;;;3.20;98.90;;;;;;4980201;28;20134;-86
2022/01/26 04:53:21;;;;;;;;;;;3.20;98.90;;;;;;4963586;28;20055;-86
2022/01/26 04:55:48;;;;;;;168.85;123.95;;;3.20;98.90;;;;;;4980681;28;19984;-86
2022/01/26 04:58:15;;;;;;;181.68;129.73;;;3.20;98.90;;;;;;4980224;28;20051;-86
2022/01/26 05:00:42;;;;;;;174.25;126.30;;;3.20;98.90;;;;;;4980102;28;20141;-86
2022/01/26 05:03:11;;;;;;;175.95;126.07;;;3.20;98.90;;;;;;4963800;28;20051;-87
2022/01/26 05:05:38;;;;;;;176.27;127.85;;;3.20;98.90;;;;;;4979540;28;20055;-87
2022/01/26 05:08:05;;;;;;;171.38;125.40;;;3.20;98.90;;;;;;4963798;28;20059;-86
2022/01/26 05:10:32;;;;;;;169.35;126.47;;;3.20;98.90;;;;;;4963830;28;20061;-86
2022/01/26 05:13:00;;;;;;;171.95;123.63;;;3.20;98.90;;;;;;4979842;28;20489;-86
2022/01/26 05:15:27;;;;;;;174.70;126.47;;;3.20;99.00;;;;;;4979751;28;20057;-86
2022/01/26 05:17:54;;;;;;;171.20;124.88;;;3.20;98.90;;;;;;4963435;28;20054;-87
2022/01/26 05:24:05;;;;;;;173.50;128.45;;;3.30;99.00;;;;;;4996047;28;20051;-87
2022/01/26 05:26:32;;;;;;;172.95;125.85;;;3.30;98.90;;;;;;4995947;28;20051;-86
2022/01/26 05:28:59;;;;;;;169.93;125.72;;;3.30;98.80;;;;;;4979365;28;20054;-86
2022/01/26 05:31:26;;;;;;;172.85;124.38;;;3.30;98.80;;;;;;4979710;28;20488;-86
2022/01/26 05:33:54;;;;;;;175.45;128.13;;;3.30;98.70;;;;;;4979522;28;20054;-85
2022/01/26 05:36:22;;;;;;;177.63;129.13;;;3.30;98.70;;;;;;4979799;28;20055;-87
2022/01/26 05:38:49;;;;;;;173.50;126.43;;;3.30;98.70;;;;;;4979386;28;20055;-85
2022/01/26 05:41:18;;;;;;;167.75;126.50;;;3.30;98.60;;;;;;4979736;28;20652;-86
2022/01/26 05:43:45;;;;;;;173.57;122.40;;;3.30;98.70;;;;;;5012702;28;20063;-87
2022/01/26 05:46:18;;;;;;;172.77;124.88;;;3.30;98.60;;;;;;4995713;28;20046;-87
2022/01/26 05:48:46;;;;;;;170.30;125.25;;;3.30;98.70;;;;;;4979196;28;20050;-86
2022/01/26 05:51:15;;;;;;;166.18;122.55;;;3.30;98.70;;;;;;4995178;28;20059;-86
2022/01/26 05:53:43;;;;;;;166.57;120.03;;;3.30;98.70;;;;;;4995135;28;20062;-86
2022/01/26 05:56:10;;;;;;;;;;;3.30;98.70;;;;;;4979528;28;20079;-86
2022/01/26 05:58:39;;;;;;;168.88;120.80;;;3.30;98.70;;;;;;4995786;28;20688;-86
2022/01/26 06:01:06;;;;;;;171.23;125.15;;;3.20;98.60;;;;;;4979231;28;20138;-86
2022/01/26 06:03:34;;;;;;;166.15;122.10;;;3.20;98.70;;;;;;4978911;28;20094;-86
2022/01/26 06:06:01;;;;;;;156.65;119.53;;;3.20;98.60;;;;;;4979252;28;20074;-86
2022/01/26 06:08:28;;;;;;;164.43;120.18;;;3.20;98.60;;;;;;4995529;28;20061;-86
2022/01/26 06:10:57;;;;;;;160.85;118.55;;;3.30;98.70;;;;;;4995127;28;20050;-86
2022/01/26 06:13:25;;;;;;;161.70;119.90;;;3.20;98.60;;;;;;4979441;28;20054;-86
2022/01/26 06:15:53;;;;;;;163.02;121.07;;;3.20;98.60;;;;;;4995031;28;20449;-86
2022/01/26 06:18:20;;;;;;;159.05;120.47;;;3.20;98.60;;;;;;4978718;28;20531;-86
2022/01/26 06:20:48;;;;;;;172.00;121.95;;;3.20;98.60;;;;;;4994975;28;20120;-87
2022/01/26 06:23:15;;;;;;;156.15;117.53;;;3.20;98.60;;;;;;4994450;28;20061;-86
2022/01/26 06:25:42;;;;;;;;;;;3.20;98.50;;;;;;4995136;28;20075;-85
2022/01/26 06:28:12;;;;;;;;;;;3.20;98.50;;;;;;4995610;28;20417;-85
2022/01/26 06:30:40;;;;;;;157.07;118.18;;;3.20;98.50;;;;;;4979049;28;19933;-86
2022/01/26 06:33:09;;;;;;;154.73;118.78;;;3.20;98.40;;;;;;4978916;28;20137;-86
2022/01/26 06:35:36;;;;;;;158.80;119.03;;;3.20;98.50;;;;;;4978699;28;20039;-86
2022/01/26 06:38:03;;;;;;;157.40;121.50;;;3.20;98.50;;;;;;4978007;28;20580;-86
2022/01/26 06:40:31;;;;;;;164.00;121.40;;;3.20;98.50;;;;;;4995021;28;20142;-86
2022/01/26 06:43:01;;;;;;;162.32;120.65;;;3.20;98.50;;;;;;4978701;28;20058;-86
2022/01/26 06:45:32;;;;;;;157.27;119.05;;;3.20;98.50;;;;;;4978112;28;20058;-86
2022/01/26 06:50:47;;;;;;;160.17;117.23;;;3.20;98.60;;;;;;4978435;28;20055;-86
2022/01/26 06:53:14;;;;;;;155.80;120.68;;;3.10;98.60;;;;;;4978519;28;20259;-86
2022/01/26 06:55:41;;;;;;;158.75;125.90;;;3.20;98.60;;;;;;4994939;28;20588;-87
2022/01/26 06:58:09;;;;;;;156.18;119.15;;;3.20;98.60;;;;;;4978065;28;20050;-86
2022/01/26 07:00:37;;;;;;;159.23;122.10;;;3.20;98.50;;;;;;4978351;28;20059;-87
2022/01/26 07:03:04;;;;;;;154.50;119.95;;;3.20;98.50;;;;;;4978610;28;20769;-86
2022/01/26 07:05:31;;;;;;;151.32;119.50;;;3.20;98.50;;;;;;4994582;28;20055;-85
2022/01/26 07:08:00;;;;;;;150.77;118.57;;;3.20;98.50;;;;;;4994103;28;20137;-87
2022/01/26 07:10:27;;;;;;;155.43;120.18;;;3.20;98.50;;;;;;4977823;28;20108;-86
2022/01/26 07:12:55;;;;;;;159.10;124.85;;;3.20;98.50;;;;;;4978078;28;20051;-87
2022/01/26 07:23:44;;;;;;;154.18;121.72;;;3.20;98.50;;;;;;4997462;28;20481;-89
2022/01/26 07:26:11;;;;;;;156.82;122.03;;;3.20;98.50;;;;;;4981284;28;20084;-86
2022/01/26 07:28:40;;;;;;;160.35;122.50;;;3.20;98.60;;;;;;4997580;28;20105;-86
2022/01/26 07:31:08;;;;;;;158.70;120.63;;;3.30;98.60;;;;;;4997190;28;20134;-87
2022/01/26 07:33:37;;;;;;;155.55;119.95;;;3.30;98.60;;;;;;4997953;28;20142;-87
2022/01/26 07:36:06;;;;;;;163.80;124.88;;;3.20;98.50;;;;;;4981701;28;20051;-87
2022/01/26 07:38:34;;;;;;;163.65;125.15;;;3.30;98.60;;;;;;4982024;28;20057;-87
2022/01/26 07:41:03;;;;;;;166.27;127.45;;;3.30;98.50;;;;;;4996764;28;20058;-83
2022/01/26 07:43:30;;;;;;;174.52;128.18;;;3.30;98.50;;;;;;4979629;28;20051;-84
2022/01/26 07:45:57;;;;;;;172.20;127.43;;;3.40;98.50;;;;;;4980254;28;20151;-84
2022/01/26 07:48:25;;;;;;;166.95;126.63;;;3.40;98.50;;;;;;4994652;28;20050;-84
2022/01/26 07:50:54;;;;;;;171.45;128.70;;;3.30;98.50;;;;;;4979746;28;20054;-83
2022/01/26 07:53:22;;;;;;;172.25;127.63;;;3.40;98.50;;;;;;4996028;28;20051;-85
2022/01/26 07:55:49;;;;;;;168.45;125.57;;;3.40;98.50;;;;;;4995758;28;20047;-88
2022/01/26 07:58:21;;;;;;;;;;;3.40;98.50;;;;;;4980864;28;20058;-87
2022/01/26 08:00:49;;;;;;;177.63;126.78;;;3.40;98.50;;;;;;4981868;28;20427;-87
2022/01/26 08:03:17;;;;;;;177.05;129.27;;;3.40;98.50;;;;;;4981343;28;20055;-87
2022/01/26 08:05:45;;;;;;;179.68;131.70;;;3.40;98.50;;;;;;4980928;28;20055;-88
2022/01/26 08:08:13;;;;;;;182.60;132.23;;;3.40;98.60;;;;;;4980184;28;20054;-86
2022/01/26 08:10:41;;;;;;;184.15;137.57;;;3.30;98.60;;;;;;4980808;28;20101;-85
2022/01/26 08:13:08;;;;;;;189.55;133.75;;;3.40;98.60;;;;;;4995683;28;20141;-85
2022/01/26 08:15:36;;;;;;;191.10;139.68;;;3.40;98.60;;;;;;4978971;28;20536;-84
2022/01/26 08:18:29;;;;;;;192.15;138.90;;;3.40;98.70;;;;;;4981947;28;20134;-89
2022/01/26 08:21:05;;;;;;;198.18;141.85;;;3.40;98.70;;;;;;4998019;28;20054;-89
2022/01/26 08:23:32;;;;;;;203.00;141.95;;;3.40;98.70;;;;;;4981488;28;20051;-88
2022/01/26 08:26:00;;;;;;;;;;;3.40;98.70;;;;;;4981981;28;20065;-89
2022/01/26 08:28:34;;;;;;;;;;;3.40;98.70;;;;;;4982384;28;19925;-89
2022/01/26 08:31:06;;;;;;;200.90;139.98;;;3.50;98.70;;;;;;4982569;28;20784;-90
2022/01/26 08:33:35;;;;;;;210.27;149.80;;;3.50;98.80;;;;;;4981819;28;20046;-89
2022/01/26 08:36:03;;;;;;;206.43;147.27;;;3.50;98.80;;;;;;4981966;28;20055;-84
2022/01/26 08:38:30;;;;;;;210.35;143.73;;;3.50;98.80;;;;;;4981206;28;20054;-87
2022/01/26 08:40:58;;;;;;;213.63;146.48;;;3.50;98.80;;;;;;4994787;28;20143;-88
2022/01/26 08:43:26;;;;;;;211.25;148.70;;;3.50;98.70;;;;;;4981040;28;20055;-88
2022/01/26 08:45:54;;;;;;;211.35;143.57;;;3.60;98.70;;;;;;4981695;28;20059;-89
2022/01/26 08:48:23;;;;;;;213.38;150.07;;;3.50;98.80;;;;;;4981343;28;20055;-89
2022/01/26 08:51:17;;;;;;;217.52;147.15;;;3.60;98.80;;;;;;4981582;28;20057;-90
2022/01/26 08:53:44;;;;;;;219.52;151.57;;;3.60;98.80;;;;;;4982200;28;20054;-88
2022/01/26 08:56:39;;;;;;;220.93;151.15;;;3.60;99.10;;;;;;4982073;28;20043;-91
2022/01/26 09:04:11;;;;;;;228.07;149.63;;;3.60;98.90;;;;;;4978252;28;20062;-90
2022/01/26 09:07:31;;;;;;;233.73;153.20;;;3.70;98.90;;;;;;4961526;28;20143;-91
2022/01/26 09:10:01;;;;;;;234.70;166.70;;;3.70;98.90;;;;;;4976327;28;20063;-83
2022/01/26 09:12:30;;;;;;;229.25;155.32;;;3.70;99.00;;;;;;4958659;28;20051;-86
2022/01/26 09:15:00;;;;;;;238.35;160.88;;;3.80;99.00;;;;;;4973934;28;20137;-82
2022/01/26 09:17:30;;;;;;;226.90;156.68;;;3.80;99.00;;;;;;4992931;28;20047;-81
2022/01/26 09:20:00;;;;;;;225.80;152.85;;;3.80;99.00;;;;;;4994680;28;20059;-83
2022/01/26 09:22:27;;;;;;;231.85;157.93;;;3.80;99.00;;;;;;4978022;28;20050;-85
2022/01/26 09:24:55;;;;;;;225.73;151.73;;;3.80;99.00;;;;;;4975580;28;20061;-85
2022/01/26 09:27:23;;;;;;;229.07;152.02;;;3.90;99.00;;;;;;4971108;28;20051;-85
2022/01/26 09:29:50;;;;;;;221.93;150.65;;;3.80;99.00;;;;;;4978292;28;20158;-84
2022/01/26 09:32:18;;;;;;;230.68;161.38;;;3.80;99.10;;;;;;4994911;28;20054;-85
2022/01/26 09:34:45;;;;;;;231.38;161.05;;;3.80;99.20;;;;;;4978141;28;20106;-84
2022/01/26 09:37:13;;;;;;;220.38;152.73;;;3.90;99.20;;;;;;4994088;28;20062;-84
2022/01/26 09:39:42;;;;;;;223.80;151.23;;;3.90;99.20;;;;;;4977321;28;20061;-82
2022/01/26 09:42:10;;;;;;;222.35;156.52;;;3.90;99.20;;;;;;4979400;28;20097;-86
2022/01/26 09:44:40;;;;;;;224.80;156.45;;;3.90;99.20;;;;;;4977931;28;20061;-83
2022/01/26 09:47:09;;;;;;;218.57;146.77;;;3.90;99.20;;;;;;4993818;28;20051;-84
2022/01/26 09:49:36;;;;;;;214.98;146.57;;;3.90;99.20;;;;;;4994548;28;20138;-86
2022/01/26 09:52:13;;;;;;;219.52;154.02;;;3.90;99.20;;;;;;4979693;28;20137;-87
2022/01/26 09:54:50;;;;;;;217.32;149.32;;;4.00;99.30;;;;;;4995030;28;20054;-93
2022/01/26 09:57:19;;;;;;;224.93;155.48;;;4.00;99.30;;;;;;4980694;28;20050;-90
2022/01/26 10:04:39;;;;;;;212.50;143.32;;;4.00;99.20;;;;;;5009266;28;20058;-92
2022/01/26 10:17:27;;;;;;;199.60;143.93;;;4.10;99.30;;;;;;4979747;28;20198;-88
2022/01/26 10:20:03;;;;;;;199.65;141.40;;;4.10;99.20;;;;;;4980582;28;20054;-92
2022/01/26 10:22:32;;;;;;;203.45;146.55;;;4.20;99.20;;;;;;4980196;28;20058;-92
2022/01/26 10:25:27;;;;;;;199.13;144.15;;;4.20;99.20;;;;;;4980623;28;20117;-92
2022/01/26 10:28:01;;;;;;;200.47;142.63;;;4.20;99.20;;;;;;4980100;28;20114;-93
2022/01/26 10:42:25;;;;;;;198.57;145.82;;;4.30;99.00;;;;;;4917783;28;20060;-94
2022/01/26 10:45:06;;;;;;;;;;;4.40;99.00;;;;;;4941565;28;20222;-94
2022/01/26 10:51:56;;;;;;;193.27;140.68;;;4.40;98.90;;;;;;4955514;28;20047;-91
2022/01/26 10:55:27;;;;;;;202.07;144.35;;;4.40;98.90;;;;;;4996745;28;20086;-92
2022/01/26 10:57:59;;;;;;;197.98;141.70;;;4.40;98.90;;;;;;4979981;28;20121;-90
2022/01/26 11:00:27;;;;;;;196.98;144.73;;;4.40;99.00;;;;;;4978467;28;20063;-85
2022/01/26 11:02:57;;;;;;;197.98;149.05;;;4.40;98.90;;;;;;4977543;28;20130;-86
2022/01/26 11:05:25;;;;;;;210.60;144.43;;;4.50;98.90;;;;;;4977163;28;20062;-82
2022/01/26 11:07:52;;;;;;;;;;;4.50;98.80;;;;;;4992510;28;21137;-82
2022/01/26 11:10:19;;;;;;;;;;;4.50;98.70;;;;;;4976716;28;20016;-81
2022/01/26 11:12:46;;;;;;;201.20;144.35;;;4.50;98.70;;;;;;4976243;28;19930;-81
2022/01/26 11:15:17;;;;;;;205.13;145.23;;;4.50;98.70;;;;;;4975630;28;20055;-80
2022/01/26 11:17:49;;;;;;;197.65;142.52;;;4.60;98.70;;;;;;4974779;28;20042;-80
2022/01/26 11:20:18;;;;;;;199.13;139.02;;;4.60;98.60;;;;;;4992361;28;20050;-79
2022/01/26 11:22:50;;;;;;;193.45;140.98;;;4.60;98.50;;;;;;4975755;28;20581;-80
2022/01/26 11:25:17;;;;;;;191.50;139.60;;;4.60;98.60;;;;;;4991954;28;20082;-83
2022/01/26 11:27:45;;;;;;;;;;;4.60;98.60;;;;;;4992542;28;20141;-81
2022/01/26 11:30:20;;;;;;;;;;;4.60;98.60;;;;;;4975295;28;19929;-82
2022/01/26 11:32:55;;;;;;;196.20;144.15;;;4.60;98.60;;;;;;4993081;28;19930;-81
2022/01/26 11:35:24;;;;;;;196.55;142.13;;;4.60;98.60;;;;;;4992643;28;20090;-81
2022/01/26 11:38:04;;;;;;;197.23;140.20;;;4.60;98.60;;;;;;4975807;28;20141;-81
2022/01/26 11:46:24;;;;;;;200.40;141.60;;;4.60;98.70;;;;;;4991701;28;20059;-82
2022/01/26 11:49:06;;;;;;;190.45;138.30;;;4.60;98.70;;;;;;4991781;28;20050;-82
2022/01/26 11:51:44;;;;;;;188.90;139.73;;;4.60;98.70;;;;;;4991723;28;20462;-81
2022/01/26 11:54:14;;;;;;;196.95;144.75;;;4.70;98.70;;;;;;4974275;28;20777;-81
2022/01/26 11:56:41;;;;;;;184.48;141.00;;;4.70;98.70;;;;;;4975110;28;20061;-81
2022/01/26 11:59:20;;;;;;;189.18;137.00;;;4.70;98.70;;;;;;4974915;28;20051;-81
2022/01/26 12:01:55;;;;;;;191.90;141.63;;;4.70;98.70;;;;;;4977701;28;20057;-81
2022/01/26 12:04:25;;;;;;;185.75;134.52;;;4.70;98.80;;;;;;4979236;28;20556;-81
2022/01/26 12:06:58;;;;;;;193.55;146.52;;;4.70;98.70;;;;;;4977332;28;20050;-82
2022/01/26 12:09:26;;;;;;;185.32;136.63;;;4.70;98.60;;;;;;4978263;28;20050;-81
2022/01/26 12:11:54;;;;;;;192.52;146.18;;;4.70;98.70;;;;;;4977156;28;20529;-81
2022/01/26 12:14:21;;;;;;;194.75;146.93;;;4.80;98.70;;;;;;4978074;28;20138;-81
2022/01/26 12:16:52;;;;;;;191.05;141.55;;;4.70;98.60;;;;;;4931723;28;20528;-81
2022/01/26 12:19:32;;;;;;;192.07;145.40;;;4.80;98.70;;;;;;4977333;28;20138;-81
2022/01/26 12:36:21;;;;;;;186.88;138.20;;;4.70;99.10;;;;;;4944489;28;20066;-79
2022/01/26 12:38:57;;;;;;;181.05;136.00;;;4.70;99.10;;;;;;4987354;28;20058;-80
2022/01/26 12:41:31;;;;;;;177.07;136.18;;;4.70;99.10;;;;;;4994571;28;20047;-80
2022/01/26 12:44:01;;;;;;;176.27;135.40;;;4.70;99.20;;;;;;4977606;28;20051;-79
2022/01/26 12:46:30;;;;;;;168.95;133.48;;;4.70;99.20;;;;;;4994537;28;20639;-81
2022/01/26 12:48:59;;;;;;;174.57;134.18;;;4.70;99.30;;;;;;4993798;28;20046;-80
2022/01/26 12:51:27;;;;;;;174.82;133.90;;;4.70;99.30;;;;;;5010612;28;20061;-80
2022/01/26 12:53:57;;;;;;;173.75;134.45;;;4.80;99.30;;;;;;4993849;28;20047;-80
2022/01/26 12:56:26;;;;;;;172.63;136.38;;;4.80;99.30;;;;;;4994055;28;20055;-80
2022/01/26 12:59:00;;;;;;;171.93;135.45;;;4.80;99.30;;;;;;4993940;28;20054;-79
2022/01/26 13:01:28;;;;;;;169.98;131.40;;;4.80;99.20;;;;;;4991212;28;20149;-79
2022/01/26 13:03:58;;;;;;;166.65;131.10;;;4.80;99.20;;;;;;4974723;28;20551;-79
2022/01/26 13:06:27;;;;;;;175.48;138.80;;;4.80;99.30;;;;;;4958255;28;20549;-80
2022/01/26 13:08:57;;;;;;;169.23;136.35;;;4.80;99.30;;;;;;4973897;28;20130;-79
2022/01/26 13:11:26;;;;;;;169.52;132.13;;;4.80;99.50;;;;;;4996114;28;20051;-80
2022/01/26 13:14:12;;;;;;;173.52;131.85;;;4.80;99.30;;;;;;4976920;28;20157;-80
2022/01/26 13:16:43;;;;;;;173.65;132.50;;;4.80;99.40;;;;;;4995272;28;20062;-79
2022/01/26 13:19:31;;;;;;;165.93;128.57;;;4.80;99.30;;;;;;4993131;28;20587;-84
2022/01/26 13:22:28;;;;;;;167.02;132.95;;;4.90;99.40;;;;;;4993229;28;20054;-81
2022/01/26 13:25:15;;;;;;;;;;;4.80;99.40;;;;;;4993459;28;20058;-81
2022/01/26 13:28:09;;;;;;;;;;;4.90;99.40;;;;;;4977905;28;19930;-82
2022/01/26 13:31:11;;;;;;;178.32;128.90;;;4.90;99.40;;;;;;4959933;28;19932;-86
2022/01/26 13:34:15;;;;;;;178.73;138.38;;;4.90;99.30;;;;;;4990376;28;20138;-84
2022/01/26 13:37:01;;;;;;;171.90;130.38;;;4.90;99.30;;;;;;4974788;28;20055;-85
2022/01/26 13:39:42;;;;;;;176.68;133.38;;;4.90;99.40;;;;;;4974492;28;20059;-83
2022/01/26 13:45:24;;;;;;;163.35;132.07;;;4.90;99.50;;;;;;4973346;28;20572;-83
2022/01/26 13:48:32;;;;;;;168.45;137.60;;;5.00;99.40;;;;;;4973597;28;20948;-83
2022/01/26 13:51:08;;;;;;;164.05;127.47;;;5.00;99.50;;;;;;4980572;28;20071;-78
2022/01/26 13:53:46;;;;;;;166.50;131.45;;;5.00;99.40;;;;;;4993511;28;20070;-80
2022/01/26 13:56:17;;;;;;;164.75;131.57;;;5.00;99.40;;;;;;4977016;28;20054;-81
2022/01/26 13:59:08;;;;;;;169.20;136.75;;;5.00;99.40;;;;;;4992657;28;20102;-80
2022/01/26 14:01:37;;;;;;;164.88;129.55;;;5.00;99.40;;;;;;4993546;28;20043;-82
2022/01/26 14:04:06;;;;;;;174.65;138.18;;;5.00;99.30;;;;;;4994560;28;20900;-77
2022/01/26 14:06:33;;;;;;;167.25;132.60;;;5.00;99.40;;;;;;4993076;28;20053;-80
2022/01/26 14:09:00;;;;;;;165.80;133.45;;;5.00;99.40;;;;;;4976539;28;20082;-81
2022/01/26 14:11:27;;;;;;;169.05;133.57;;;5.00;99.50;;;;;;4992891;28;20054;-82
2022/01/26 14:13:57;;;;;;;165.07;132.50;;;5.10;99.50;;;;;;4976795;28;20097;-81
2022/01/26 14:16:27;;;;;;;168.32;138.25;;;5.10;99.50;;;;;;4976754;28;20106;-82
2022/01/26 14:19:09;;;;;;;160.57;128.25;;;5.10;99.40;;;;;;4977451;28;20141;-85
2022/01/26 14:22:05;;;;;;;164.73;134.68;;;5.10;99.50;;;;;;4993217;28;20131;-82
2022/01/26 14:24:49;;;;;;;175.43;139.52;;;5.10;99.40;;;;;;4976078;28;20058;-83
2022/01/26 14:27:16;;;;;;;165.32;131.40;;;5.10;99.40;;;;;;4992095;28;20090;-86
2022/01/26 14:30:00;;;;;;;169.43;134.93;;;5.10;99.50;;;;;;4976613;28;20152;-82
2022/01/26 14:32:48;;;;;;;176.77;135.07;;;5.10;99.50;;;;;;4976437;28;20593;-83
2022/01/26 14:40:59;;;;;;;167.85;131.77;;;5.20;99.50;;;;;;4976981;28;20815;-84
2022/01/26 15:00:22;;;;;;;167.85;132.77;;;5.40;99.40;;;;;;4992243;28;20134;-81
2022/01/26 15:39:59;;;;;;;164.60;129.98;;;5.50;99.40;;;;;;4976312;28;20051;-83
2022/01/26 15:41:43;;;;;;;165.57;128.50;;;5.50;99.60;;;;;;4978600;28;20153;-81
2022/01/26 15:44:23;;;;;;;;;;;5.50;99.50;;;;;;4979458;28;20058;-81
2022/01/26 15:49:49;;;;;;;164.18;131.50;;;5.50;99.50;;;;;;4979151;28;20050;-83
2022/01/26 15:52:38;;;;;;;167.65;135.07;;;5.50;99.50;;;;;;5011456;28;20050;-82
2022/01/26 15:58:10;;;;;;;160.95;130.88;;;5.50;99.60;;;;;;4995409;28;20062;-81
2022/01/26 16:06:13;;;;;;;163.50;130.55;;;5.50;99.70;;;;;;4993861;28;20082;-82
2022/01/26 16:17:18;;;;;;;164.20;134.20;;;5.50;99.70;;;;;;4978289;28;20086;-80